createdAt,value
2022-12-23T00:04:40.801Z,3393.230769230769
2022-12-23T00:11:00.480Z,3443.6588628762543
2022-12-23T00:17:23.322Z,3450.43143812709
2022-12-23T00:29:21.120Z,3499.8060200668897
2022-12-23T00:35:40.708Z,3581.217391304348
2022-12-23T00:41:59.883Z,3596.608695652174
2022-12-23T00:48:56.812Z,3731.6688963210704
2022-12-23T01:00:13.180Z,4004.608695652174
2022-12-23T01:06:33.106Z,4275.060200668896
2022-12-23T01:12:52.875Z,3882.0501672240803
2022-12-23T01:20:34.565Z,3701.678929765886
2022-12-23T01:26:53.796Z,3869.3779264214045
2022-12-23T01:33:14.217Z,3724.304347826087
2022-12-23T01:43:55.663Z,3604.6454849498327
2022-12-23T01:56:23.747Z,3543.8428093645484
2022-12-23T02:08:54.960Z,3587.1672240802677
2022-12-23T02:26:21.403Z,3479.5886287625417
2022-12-23T02:32:41.076Z,3585.5016722408027
2022-12-23T02:42:59.728Z,3501.7725752508363
2022-12-23T02:50:33.303Z,3314.969899665552
2022-12-23T02:56:56.319Z,3174.5016722408027
2022-12-23T03:03:16.751Z,3188.086956521739
2022-12-23T03:09:36.910Z,3233.608695652174
2022-12-23T03:19:43.450Z,3252.371237458194
2022-12-23T03:26:03.387Z,3352.42474916388
2022-12-23T03:33:42.479Z,3389.7391304347825
2022-12-23T03:40:01.664Z,3330.210702341137
2022-12-23T03:46:23.287Z,3200.2675585284283
2022-12-23T03:58:55.619Z,2804.4983277591973
2022-12-23T04:05:15.566Z,2930.1571906354516
2022-12-23T04:14:17.726Z,3056.327759197324
2022-12-23T04:20:37.334Z,3053.9799331103677
2022-12-23T04:26:56.395Z,3028.9665551839466
2022-12-23T04:33:39.934Z,3202.2140468227426
2022-12-23T04:40:00.226Z,3223.2240802675587
2022-12-23T04:52:18.512Z,3196.264214046823
2022-12-23T04:58:37.797Z,3173.5083612040135
2022-12-23T05:04:58.618Z,3088.0434782608695
2022-12-23T05:14:14.452Z,3152.61872909699
2022-12-23T05:22:08.039Z,3376.073578595318
2022-12-23T05:28:28.202Z,3376.1638795986623
2022-12-23T05:36:16.326Z,3529.344481605351
2022-12-23T05:42:37.963Z,3514.2341137123744
2022-12-23T05:56:29.175Z,3624.521739130435
2022-12-23T06:02:53.828Z,3585.2608695652175
2022-12-23T06:09:19.936Z,3611.809364548495
2022-12-23T06:20:01.868Z,3617.0367892976587
2022-12-23T06:27:28.825Z,3545.3076923076924
2022-12-23T06:33:48.538Z,3709.705685618729
2022-12-23T06:41:57.259Z,4041.933110367893
2022-12-23T06:50:26.845Z,3968.56856187291
2022-12-23T06:56:46.217Z,3845.598662207358
2022-12-23T07:05:45.163Z,3749.638795986622
2022-12-23T07:13:32.135Z,3494.678929765886
2022-12-23T07:21:31.580Z,3436.9866220735785
2022-12-23T07:27:51.301Z,3535.6053511705686
2022-12-23T07:34:55.887Z,3661.685618729097
2022-12-23T07:41:16.078Z,3558.120401337793
2022-12-23T07:47:35.813Z,3433.294314381271
2022-12-23T07:53:59.557Z,3414.240802675585
2022-12-23T08:07:30.711Z,3318.3010033444816
2022-12-23T08:13:54.893Z,3234.2809364548493
2022-12-23T08:20:33.567Z,3216.6822742474915
2022-12-23T08:26:56.667Z,3073.3545150501673
2022-12-23T08:39:42.431Z,3373.42474916388
2022-12-23T08:46:05.166Z,3305.0267558528426
2022-12-23T08:53:47.091Z,3207.030100334448
2022-12-23T09:01:53.455Z,3350.327759197324
2022-12-23T09:08:15.824Z,3251.1571906354516
2022-12-23T09:15:51.184Z,2999.3578595317726
2022-12-23T09:31:36.798Z,2768.488294314381
2022-12-23T09:38:00.726Z,2736.913043478261
2022-12-23T09:48:39.318Z,2783.799331103679
2022-12-23T09:56:23.262Z,2808.8628762541807
2022-12-23T10:04:04.019Z,2737.183946488294
2022-12-23T10:10:29.636Z,2767.42474916388
2022-12-23T10:16:54.019Z,2822.217391304348
2022-12-23T10:23:18.519Z,2832.8929765886287
2022-12-23T10:29:39.782Z,2814.8327759197323
2022-12-23T10:41:38.513Z,2802.913043478261
2022-12-23T10:48:00.208Z,2882.1070234113713
2022-12-23T11:01:27.596Z,2756.598662207358
2022-12-23T11:07:49.837Z,2755.334448160535
2022-12-23T11:18:56.858Z,2839.3846153846152
2022-12-23T11:27:36.577Z,2756.7491638795987
2022-12-23T11:33:59.429Z,2823.943143812709
2022-12-23T11:46:57.108Z,2790.71237458194
2022-12-23T12:01:16.139Z,2638.896321070234
2022-12-23T12:07:47.056Z,2685.4715719063547
2022-12-23T12:26:16.322Z,2656.0033444816054
2022-12-23T12:32:40.144Z,2754.5016722408027
2022-12-23T12:44:59.185Z,2707.6254180602004
2022-12-23T12:51:23.880Z,2617.264214046823
2022-12-23T12:57:46.551Z,2660.1973244147157
2022-12-23T13:09:55.668Z,2550.742474916388
2022-12-23T13:16:20.087Z,2401.4448160535117
2022-12-23T13:22:44.284Z,2417.3177257525085
2022-12-23T13:29:35.006Z,2398.705685618729
2022-12-23T13:38:33.996Z,2362.866220735786
2022-12-23T13:44:56.783Z,2329.3645484949834
2022-12-23T13:51:19.498Z,2412.0501672240803
2022-12-23T13:57:46.216Z,2466.0802675585282
2022-12-23T14:09:48.827Z,2423.809364548495
2022-12-23T14:20:59.460Z,2539.9665551839466
2022-12-23T14:27:29.315Z,2412.8829431438126
2022-12-23T14:39:59.007Z,2523.4515050167224
2022-12-23T14:49:38.501Z,2491.103678929766
2022-12-23T15:10:54.017Z,2678.6588628762543
2022-12-23T15:19:50.720Z,2566.0836120401336
2022-12-23T15:26:11.933Z,2620.735785953177
2022-12-23T15:32:32.497Z,2601.8829431438126
2022-12-23T15:38:52.549Z,2618.7090301003345
2022-12-23T15:45:20.260Z,2728.063545150502
2022-12-23T15:52:09.469Z,2991.8428093645484
2022-12-23T15:58:32.813Z,2675.7190635451507
2022-12-23T16:04:54.639Z,2513.438127090301
2022-12-23T16:11:20.300Z,2576.28762541806
2022-12-23T16:20:40.119Z,2591.1170568561874
2022-12-23T16:27:00.680Z,2507.0367892976587
2022-12-23T16:33:22.618Z,2478.200668896321
2022-12-23T16:39:44.280Z,2392.896321070234
2022-12-23T16:56:09.135Z,2576.6588628762543
2022-12-23T17:06:47.606Z,2607.4214046822744
2022-12-23T17:13:07.473Z,2661.230769230769
2022-12-23T17:19:29.424Z,2569.123745819398
2022-12-23T17:25:48.813Z,2712.632107023411
2022-12-23T17:32:10.567Z,2809.0033444816054
2022-12-23T17:38:30.092Z,2705.478260869565
2022-12-23T17:44:51.081Z,2656.9765886287623
2022-12-23T18:06:05.592Z,2795.408026755853
2022-12-23T18:24:19.165Z,2308.735785953177
2022-12-23T18:30:39.743Z,2483.819397993311
2022-12-23T18:37:57.672Z,2121.632107023411
2022-12-23T18:47:06.725Z,2197.6153846153848
2022-12-23T18:53:28.432Z,2023.896321070234
2022-12-23T18:59:49.833Z,1971.3010033444816
2022-12-23T19:11:10.876Z,2642.076923076923
2022-12-23T19:17:31.679Z,2210.989966555184
2022-12-23T19:23:51.614Z,2571.913043478261
2022-12-23T19:43:07.607Z,2309.247491638796
2022-12-23T19:49:27.626Z,2455.846153846154
2022-12-23T19:55:47.868Z,2526.2709030100336
2022-12-23T20:04:42.184Z,2874.2709030100336
2022-12-23T20:14:45.333Z,2464.47491638796
2022-12-23T20:21:14.872Z,2154.6220735785955
2022-12-23T20:27:41.127Z,2341.133779264214
2022-12-23T20:39:48.022Z,1921.5551839464883
2022-12-23T20:46:11.681Z,1617.6521739130435
2022-12-23T20:52:32.215Z,1589.7290969899666
2022-12-23T20:58:52.720Z,1519.2541806020067
2022-12-23T21:12:32.423Z,1481.0869565217392
2022-12-23T21:18:54.864Z,1569.4916387959865
2022-12-23T21:25:30.355Z,1547.1371237458195
2022-12-23T21:31:59.262Z,1309.505016722408
2022-12-23T21:42:35.548Z,1411.8260869565217
2022-12-23T21:49:10.716Z,1392.551839464883
2022-12-23T21:57:52.385Z,1514.8294314381271
2022-12-23T22:04:34.939Z,1408.0535117056857
2022-12-23T22:11:13.005Z,1443.943143812709
2022-12-23T22:18:39.984Z,1438.9464882943143
2022-12-23T22:25:48.784Z,1502.076923076923
2022-12-23T22:32:15.952Z,1470.3411371237457
2022-12-23T22:38:37.413Z,1411.1739130434783
2022-12-23T22:44:57.952Z,1347.742474916388
2022-12-23T22:51:18.123Z,1382.7190635451504
2022-12-23T22:57:37.568Z,1480.3344481605352
2022-12-23T23:03:57.610Z,1476.4214046822742
2022-12-23T23:14:18.317Z,1397.9297658862877
2022-12-23T23:27:40.499Z,1304.5585284280937
2022-12-23T23:34:00.603Z,1318.4749163879599
2022-12-23T23:55:46.918Z,1291.9866220735787
